Time;durP1;ratioP1;P1;durP2;ratioP2;P2;SDS_P1;SDS_P2;PMS_P1;PMS_P2;Temp;Humidity;BMP_temperature;BMP_pressure;BME280_temperature;BME280_humidity;BME280_pressure;Samples;Min_cycle;Max_cycle;Signal;HPM_P1;HPM_P2
2021/12/05 00:23:09;;;;;;;;;;;2.20;99.90;;;;;;4994002;28;20093;-82
2021/12/05 00:25:35;;;;;;;;;;;2.20;99.90;;;;;;4966406;28;19967;-82
2021/12/05 00:28:34;;;;;;;;;;;2.10;99.90;;;;;;4980752;28;20012;-82
2021/12/05 00:33:51;;;;;;;;;;;2.10;99.90;;;;;;5005669;28;20987;-82
2021/12/05 00:42:04;;;;;;;;;;;2.10;99.90;;;;;;5008645;28;19913;-82
2021/12/05 00:59:05;;;;;;;;;;;2.00;99.90;;;;;;4976378;28;19914;-82
2021/12/05 01:12:07;;;;;;;;;;;1.90;99.90;;;;;;5008034;28;19913;-83
2021/12/05 01:14:39;;;;;;;;;;;1.90;99.90;;;;;;4970068;28;19918;-83
2021/12/05 01:17:06;;;;;;;;;;;1.90;99.90;;;;;;4974837;28;19969;-83
2021/12/05 01:19:33;;;;;;;;;;;1.80;99.90;;;;;;4987820;28;19964;-83
2021/12/05 01:22:06;;;;;;;;;;;1.80;99.90;;;;;;4988921;28;19967;-83
2021/12/05 01:24:47;;;;;;;;;;;1.80;99.90;;;;;;4955699;28;19914;-83
2021/12/05 01:27:21;;;;;;;;;;;1.80;99.90;;;;;;4965137;28;19914;-83
2021/12/05 01:32:24;;;;;;;;;;;1.70;99.90;;;;;;4991233;28;19914;-83
2021/12/05 01:43:31;;;;;;;;;;;1.80;99.90;;;;;;4972660;28;19959;-83
2021/12/05 01:57:52;;;;;;;;;;;1.90;99.90;;;;;;4970869;28;19916;-82
2021/12/05 02:02:59;;;;;;;;;;;2.00;99.90;;;;;;5004074;28;20352;-82
2021/12/05 02:08:51;;;;;;;;;;;2.00;99.90;;;;;;5002846;28;19914;-82
2021/12/05 02:11:18;;;;;;;;;;;2.00;99.90;;;;;;4970951;28;19922;-83
2021/12/05 02:29:21;;;;;;;;;;;1.90;99.90;;;;;;4974726;28;19922;-82
2021/12/05 02:35:42;;;;;;;;;;;2.00;99.90;;;;;;4969369;28;19953;-82
2021/12/05 02:46:12;;;;;;;;;;;1.90;99.90;;;;;;4949259;28;19913;-83
2021/12/05 02:48:38;;;;;;;;;;;1.80;99.90;;;;;;4976396;28;19920;-82
2021/12/05 02:51:10;;;;;;;;;;;1.80;99.90;;;;;;4973781;28;19925;-83
2021/12/05 02:53:41;;;;;;;;;;;1.80;99.90;;;;;;4987231;28;20036;-82
2021/12/05 02:56:09;;;;;;;;;;;1.80;99.90;;;;;;4973323;28;19913;-83
2021/12/05 03:01:43;;;;;;;;;;;1.80;99.90;;;;;;4974562;28;19910;-83
2021/12/05 03:04:10;;;;;;;;;;;1.70;99.90;;;;;;4964520;28;19913;-83
2021/12/05 03:06:38;;;;;;;;;;;1.70;99.90;;;;;;4957533;28;19960;-83
2021/12/05 03:09:06;;;;;;;;;;;1.70;99.90;;;;;;4993002;28;19914;-83
2021/12/05 03:11:32;;;;;;;;;;;1.70;99.90;;;;;;4979389;28;20327;-82
2021/12/05 03:13:58;;;;;;;;;;;1.70;99.90;;;;;;4966684;28;19913;-82
2021/12/05 03:16:28;;;;;;;;;;;1.70;99.90;;;;;;4976850;28;20307;-83
2021/12/05 03:18:54;;;;;;;;;;;1.60;99.90;;;;;;4997569;28;20016;-83
2021/12/05 03:21:20;;;;;;;;;;;1.60;99.90;;;;;;4973313;28;19956;-83
2021/12/05 03:23:48;;;;;;;;;;;1.60;99.90;;;;;;4988307;28;20380;-82
2021/12/05 03:26:18;;;;;;;;;;;1.60;99.90;;;;;;4972864;28;19910;-82
2021/12/05 03:28:44;;;;;;;;;;;1.60;99.90;;;;;;4973041;28;19913;-83
2021/12/05 03:31:11;;;;;;;;;;;1.60;99.90;;;;;;4973260;28;20301;-83
2021/12/05 03:33:37;;;;;;;;;;;1.60;99.90;;;;;;4969086;28;19917;-83
2021/12/05 03:36:04;;;;;;;;;;;1.60;99.90;;;;;;4988264;28;19932;-83
2021/12/05 03:38:30;;;;;;;;;;;1.60;99.90;;;;;;4972890;28;20323;-82
2021/12/05 03:40:56;;;;;;;;;;;1.60;99.90;;;;;;4956928;28;19917;-83
2021/12/05 03:43:22;;;;;;;;;;;1.60;99.90;;;;;;4974959;28;19918;-82
2021/12/05 03:45:51;;;;;;;;;;;1.60;99.90;;;;;;5008447;28;20495;-83
2021/12/05 03:48:19;;;;;;;;;;;1.60;99.90;;;;;;4958550;28;19906;-82
2021/12/05 03:50:46;;;;;;;;;;;1.60;99.90;;;;;;4992716;28;19910;-83
2021/12/05 03:53:13;;;;;;;;;;;1.60;99.90;;;;;;4975506;28;19937;-81
2021/12/05 03:55:40;;;;;;;;;;;1.60;99.90;;;;;;4984389;28;19964;-82
2021/12/05 03:58:06;;;;;;;;;;;1.60;99.90;;;;;;5009068;28;19914;-82
2021/12/05 04:00:35;;;;;;;;;;;1.50;99.90;;;;;;4992893;28;19916;-82
2021/12/05 04:03:03;;;;;;;;;;;1.50;99.90;;;;;;4975119;28;19918;-82
2021/12/05 04:05:31;;;;;;;;;;;1.50;99.90;;;;;;4977362;28;19957;-82
2021/12/05 04:07:57;;;;;;;;;;;1.50;99.90;;;;;;4989518;28;20368;-82
2021/12/05 04:10:27;;;;;;;;;;;1.40;99.90;;;;;;4976409;28;19956;-82
2021/12/05 04:12:53;;;;;;;;;;;1.40;99.90;;;;;;4971543;28;20387;-82
2021/12/05 04:15:19;;;;;;;;;;;1.40;99.90;;;;;;5008649;28;19960;-83
2021/12/05 04:17:47;;;;;;;;;;;1.40;99.90;;;;;;4974494;28;19914;-83
2021/12/05 04:20:14;;;;;;;;;;;1.40;99.90;;;;;;4991068;28;19977;-83
2021/12/05 04:22:40;;;;;;;;;;;1.30;99.90;;;;;;4964375;28;19909;-82
2021/12/05 04:25:11;;;;;;;;;;;1.30;99.90;;;;;;4985385;28;19921;-82
2021/12/05 04:27:37;;;;;;;;;;;1.30;99.90;;;;;;4963618;28;19910;-82
2021/12/05 04:30:04;;;;;;;;;;;1.30;99.90;;;;;;5008320;28;19910;-82
2021/12/05 04:32:30;;;;;;;;;;;1.30;99.90;;;;;;4988637;28;20295;-82
2021/12/05 04:34:55;;;;;;;;;;;1.20;99.90;;;;;;4989121;28;19909;-82
2021/12/05 04:37:21;;;;;;;;;;;1.20;99.90;;;;;;5008192;28;19989;-82
2021/12/05 04:39:49;;;;;;;;;;;1.20;99.90;;;;;;4975610;28;19992;-82
2021/12/05 04:42:17;;;;;;;;;;;1.20;99.90;;;;;;4989486;28;19914;-83
2021/12/05 04:44:42;;;;;;;;;;;1.10;99.90;;;;;;4989520;28;19917;-82
2021/12/05 04:47:09;;;;;;;;;;;1.20;99.90;;;;;;5001495;28;19918;-82
2021/12/05 04:49:38;;;;;;;;;;;1.20;99.90;;;;;;4994671;28;19906;-82
2021/12/05 04:52:09;;;;;;;;;;;1.20;99.90;;;;;;4991034;28;19913;-83
2021/12/05 04:54:35;;;;;;;;;;;1.20;99.90;;;;;;4967271;28;19910;-82
2021/12/05 04:57:00;;;;;;;;;;;1.20;99.90;;;;;;4974078;28;19937;-82
2021/12/05 04:59:34;;;;;;;;;;;1.20;99.90;;;;;;4977961;28;20004;-82
2021/12/05 05:02:00;;;;;;;;;;;1.20;99.90;;;;;;4993121;28;19921;-82
2021/12/05 05:04:28;;;;;;;;;;;1.20;99.90;;;;;;4959485;28;20368;-82
2021/12/05 05:06:56;;;;;;;;;;;1.20;99.90;;;;;;4988805;28;19914;-83
2021/12/05 05:09:21;;;;;;;;;;;1.20;99.90;;;;;;5007944;28;19910;-82
2021/12/05 05:11:47;;;;;;;;;;;1.10;99.90;;;;;;4959097;28;20008;-83
2021/12/05 05:14:14;;;;;;;;;;;1.20;99.90;;;;;;4990713;28;19921;-83
2021/12/05 05:16:40;;;;;;;;;;;1.20;99.90;;;;;;5007805;28;20406;-82
2021/12/05 05:19:07;;;;;;;;;;;1.20;99.90;;;;;;4991055;28;19922;-82
2021/12/05 05:29:50;;;;;;;;;;;1.20;99.90;;;;;;4986521;28;19910;-82
2021/12/05 05:40:41;;;;;;;;;;;1.30;99.90;;;;;;4992658;28;19992;-82
2021/12/05 05:43:26;;;;;;;;;;;1.30;99.90;;;;;;4988094;28;19949;-82
2021/12/05 05:46:06;;;;;;;;;;;1.40;99.90;;;;;;4984453;28;19914;-82
2021/12/05 05:50:57;;;;;;;;;;;1.30;99.90;;;;;;4974389;28;19918;-82
2021/12/05 05:53:23;;;;;;;;;;;1.30;99.90;;;;;;4990577;28;19936;-83
2021/12/05 05:55:49;;;;;;;;;;;1.40;99.90;;;;;;4984325;28;19917;-82
2021/12/05 05:58:17;;;;;;;;;;;1.40;99.90;;;;;;4990160;28;19925;-83
2021/12/05 06:01:04;;;;;;;;;;;1.30;99.90;;;;;;4990509;28;19935;-82
2021/12/05 06:03:30;;;;;;;;;;;1.30;99.90;;;;;;4974484;28;20355;-82
2021/12/05 06:05:57;;;;;;;;;;;1.30;99.90;;;;;;4982034;28;19953;-82
2021/12/05 06:08:25;;;;;;;;;;;1.40;99.90;;;;;;4999960;28;19917;-82
2021/12/05 06:10:51;;;;;;;;;;;1.40;99.90;;;;;;4992533;28;19914;-82
2021/12/05 06:13:18;;;;;;;;;;;1.30;99.90;;;;;;4974799;28;19937;-82
2021/12/05 06:15:45;;;;;;;;;;;1.30;99.90;;;;;;4996563;28;19918;-81
2021/12/05 06:18:11;;;;;;;;;;;1.30;99.90;;;;;;4999450;28;19971;-82
2021/12/05 06:20:36;;;;;;;;;;;1.30;99.90;;;;;;5007806;28;19910;-81
2021/12/05 06:23:02;;;;;;;;;;;1.30;99.90;;;;;;4997392;28;19965;-81
2021/12/05 06:25:29;;;;;;;;;;;1.30;99.90;;;;;;5005144;28;19920;-81
2021/12/05 06:27:57;;;;;;;;;;;1.30;99.90;;;;;;4978173;28;19914;-81
2021/12/05 06:48:35;;;;;;;;;;;1.30;99.90;;;;;;4979719;28;19914;-81
2021/12/05 06:51:01;;;;;;;;;;;1.30;99.90;;;;;;4986100;28;20331;-81
2021/12/05 06:53:26;;;;;;;;;;;1.30;99.90;;;;;;4990591;28;19960;-81
2021/12/05 06:55:52;;;;;;;;;;;1.30;99.90;;;;;;4989044;28;19909;-81
2021/12/05 06:58:18;;;;;;;;;;;1.30;99.90;;;;;;4991992;28;19922;-81
2021/12/05 07:00:43;;;;;;;;;;;1.30;99.90;;;;;;4982083;28;19920;-81
2021/12/05 07:03:10;;;;;;;;;;;1.30;99.90;;;;;;4992173;28;19911;-81
2021/12/05 07:08:17;;;;;;;;;;;1.30;99.90;;;;;;4991374;28;19909;-82
2021/12/05 07:10:48;;;;;;;;;;;1.30;99.90;;;;;;4972357;28;19917;-82
2021/12/05 07:24:06;;;;;;;;;;;1.20;99.90;;;;;;4995458;28;19921;-81
2021/12/05 07:27:09;;;;;;;;;;;1.20;99.90;;;;;;4987174;28;19969;-81
2021/12/05 07:40:46;;;;;;;;;;;1.30;99.90;;;;;;4990204;28;19914;-81
2021/12/05 07:43:12;;;;;;;;;;;1.30;99.90;;;;;;4976718;28;19909;-81
2021/12/05 07:45:48;;;;;;;;;;;1.30;99.90;;;;;;4994541;28;20015;-81
2021/12/05 07:48:19;;;;;;;;;;;1.30;99.90;;;;;;4991878;28;20441;-81
2021/12/05 07:51:09;;;;;;;;;;;1.40;99.90;;;;;;4992670;28;19914;-81
2021/12/05 08:15:44;;;;;;;;;;;1.60;99.90;;;;;;4993732;28;19969;-81
2021/12/05 08:18:10;;;;;;;;;;;1.60;99.90;;;;;;4985827;28;20283;-82
2021/12/05 08:20:38;;;;;;;;;;;1.60;99.90;;;;;;4993002;28;19913;-82
2021/12/05 08:23:05;;;;;;;;;;;1.60;99.90;;;;;;4988957;28;19918;-82
2021/12/05 08:25:32;;;;;;;;;;;1.70;99.90;;;;;;4986742;28;19917;-81
2021/12/05 08:28:19;;;;;;;;;;;1.70;99.90;;;;;;4982470;28;19913;-82
2021/12/05 08:30:50;;;;;;;;;;;1.80;99.90;;;;;;4987552;28;19916;-81
2021/12/05 08:33:38;;;;;;;;;;;1.80;99.90;;;;;;5009203;28;20288;-82
2021/12/05 08:41:50;;;;;;;;;;;1.80;99.90;;;;;;4989715;28;19914;-82
2021/12/05 08:44:31;;;;;;;;;;;1.90;99.90;;;;;;4975750;28;19953;-82
2021/12/05 10:02:21;;;;;;;;;;;2.20;99.90;;;;;;4989968;28;20340;-81
2021/12/05 10:08:01;;;;;;;;;;;2.50;99.90;;;;;;4990550;28;20414;-82
2021/12/05 10:10:36;;;;;;;;;;;2.40;99.90;;;;;;4979464;28;19914;-83
2021/12/05 10:13:14;;;;;;;;;;;2.40;99.90;;;;;;5007517;28;19917;-82
2021/12/05 10:34:30;;;;;;;;;;;2.60;99.90;;;;;;4973163;28;20315;-82
2021/12/05 10:37:05;;;;;;;;;;;2.60;99.90;;;;;;4977782;28;19999;-82
2021/12/05 10:39:31;;;;;;;;;;;2.70;99.90;;;;;;4978452;28;19913;-83
2021/12/05 10:42:12;;;;;;;;;;;2.70;99.90;;;;;;4986742;28;20004;-82
2021/12/05 10:44:45;;;;;;;;;;;2.80;99.90;;;;;;4976502;28;19913;-84
2021/12/05 10:47:11;;;;;;;;;;;2.90;99.90;;;;;;4986259;28;19972;-83
2021/12/05 10:49:36;;;;;;;;;;;3.00;99.90;;;;;;4990970;28;19949;-83
2021/12/05 10:52:02;;;;;;;;;;;3.00;99.90;;;;;;4974270;28;19909;-82
2021/12/05 10:54:28;;;;;;;;;;;3.10;99.90;;;;;;4972596;28;19960;-83
2021/12/05 10:56:56;;;;;;;;;;;3.20;99.90;;;;;;5004004;28;19916;-83
2021/12/05 10:59:36;;;;;;;;;;;3.20;99.90;;;;;;4991447;28;20362;-83
2021/12/05 11:02:04;;;;;;;;;;;3.30;99.90;;;;;;4989690;28;19960;-81
2021/12/05 11:04:31;;;;;;;;;;;3.30;99.90;;;;;;4967697;28;19982;-85
2021/12/05 11:06:57;;;;;;;;;;;3.30;99.90;;;;;;4953557;28;19964;-81
2021/12/05 11:09:27;;;;;;;;;;;3.20;99.90;;;;;;4972912;28;19945;-85
2021/12/05 11:12:00;;;;;;;;;;;3.20;99.90;;;;;;4970347;28;19963;-84
2021/12/05 11:14:28;;;;;;;;;;;3.20;99.90;;;;;;5000164;28;19914;-84
2021/12/05 11:16:58;;;;;;;;;;;3.10;99.90;;;;;;4983855;28;19948;-86
2021/12/05 11:19:26;;;;;;;;;;;3.10;99.90;;;;;;4986114;28;19924;-86
2021/12/05 11:21:54;;;;;;;;;;;3.10;99.90;;;;;;4986292;28;19937;-84
2021/12/05 11:24:23;;;;;;;;;;;3.00;99.90;;;;;;4965323;28;19914;-82
2021/12/05 11:27:08;;;;;;;;;;;2.90;99.90;;;;;;4954462;28;19906;-83
2021/12/05 11:29:51;;;;;;;;;;;2.80;99.90;;;;;;4983042;28;19910;-82
2021/12/05 11:32:26;;;;;;;;;;;2.70;99.90;;;;;;4993635;28;20264;-81
2021/12/05 11:34:52;;;;;;;;;;;2.70;99.90;;;;;;4965493;28;20486;-79
2021/12/05 11:37:18;;;;;;;;;;;2.80;99.90;;;;;;4983512;28;20293;-85
2021/12/05 11:39:43;;;;;;;;;;;2.90;99.90;;;;;;4984184;28;20020;-83
2021/12/05 11:42:18;;;;;;;;;;;2.90;99.90;;;;;;4984733;28;20018;-81
2021/12/05 11:44:46;;;;;;;;;;;2.90;99.90;;;;;;5001190;28;20021;-82
2021/12/05 11:47:13;;;;;;;;;;;2.90;99.90;;;;;;4970095;28;20339;-82
2021/12/05 11:49:38;;;;;;;;;;;2.90;99.90;;;;;;4969002;28;19910;-80
2021/12/05 11:52:04;;;;;;;;;;;2.90;99.90;;;;;;4970243;28;20268;-80
2021/12/05 11:54:37;;;;;;;;;;;2.90;99.90;;;;;;4963738;28;20009;-81
2021/12/05 11:57:05;;;;;;;;;;;3.00;99.90;;;;;;5001476;28;20323;-81
2021/12/05 11:59:30;;;;;;;;;;;3.00;99.90;;;;;;4968423;28;20359;-80
2021/12/05 12:02:05;;;;;;;;;;;3.00;99.90;;;;;;4974465;28;19952;-83
2021/12/05 12:04:39;;;;;;;;;;;3.00;99.90;;;;;;4985920;28;19914;-79
2021/12/05 12:07:05;;;;;;;;;;;3.10;99.90;;;;;;4988617;28;20335;-82
2021/12/05 12:09:31;;;;;;;;;;;3.10;99.90;;;;;;4956876;28;19914;-81
2021/12/05 12:11:58;;;;;;;;;;;3.10;99.90;;;;;;4959417;28;19913;-82
2021/12/05 12:14:23;;;;;;;;;;;3.10;99.90;;;;;;4954985;28;20000;-82
2021/12/05 12:16:51;;;;;;;;;;;3.10;99.90;;;;;;5028216;23;20039;-88
2021/12/05 12:19:21;;;;;;;;;;;3.10;99.90;;;;;;4962414;28;20477;-89
2021/12/05 12:21:48;;;;;;;;;;;3.00;99.90;;;;;;5008714;28;19909;-88
2021/12/05 12:24:15;;;;;;;;;;;3.10;99.90;;;;;;5000614;28;20011;-88
2021/12/05 12:26:42;;;;;;;;;;;3.10;99.90;;;;;;4993425;28;19925;-88
2021/12/05 12:29:11;;;;;;;;;;;3.10;99.90;;;;;;4975485;28;19914;-88
2021/12/05 12:31:38;;;;;;;;;;;3.00;99.90;;;;;;5010006;28;19916;-89
2021/12/05 12:34:09;;;;;;;;;;;3.10;99.90;;;;;;5011173;28;19913;-86
2021/12/05 12:36:37;;;;;;;;;;;3.20;99.90;;;;;;4988306;28;19924;-88
2021/12/05 12:39:21;;;;;;;;;;;3.20;99.90;;;;;;4992126;28;20439;-89
2021/12/05 12:41:59;;;;;;;;;;;3.10;99.90;;;;;;5011462;28;20371;-88
2021/12/05 12:44:25;;;;;;;;;;;3.10;99.90;;;;;;5008995;28;19909;-89
2021/12/05 12:46:55;;;;;;;;;;;3.10;99.90;;;;;;4982082;28;20294;-88
2021/12/05 12:49:20;;;;;;;;;;;3.00;99.90;;;;;;5008166;28;19917;-88
2021/12/05 12:51:52;;;;;;;;;;;3.00;99.90;;;;;;5011386;28;19932;-87
2021/12/05 12:54:26;;;;;;;;;;;3.00;99.90;;;;;;5009616;28;20024;-88
2021/12/05 12:57:08;;;;;;;;;;;3.00;99.90;;;;;;5008456;28;19995;-89
2021/12/05 12:59:37;;;;;;;;;;;3.00;99.90;;;;;;5003975;28;19914;-88
2021/12/05 13:10:30;;;;;;;;;;;3.20;99.90;;;;;;5018874;28;19913;-86
2021/12/05 13:12:58;;;;;;;;;;;3.30;99.90;;;;;;5024977;28;19913;-89
2021/12/05 13:15:23;;;;;;;;;;;3.40;99.90;;;;;;4975282;28;19921;-89
2021/12/05 13:17:51;;;;;;;;;;;3.40;99.90;;;;;;5009970;28;19914;-88
2021/12/05 13:20:19;;;;;;;;;;;3.50;99.90;;;;;;5012296;28;19996;-88
2021/12/05 13:22:58;;;;;;;;;;;3.40;99.90;;;;;;5001251;28;20024;-88
2021/12/05 13:25:24;;;;;;;;;;;3.40;99.90;;;;;;5024853;28;20335;-88
2021/12/05 13:27:49;;;;;;;;;;;3.40;99.90;;;;;;4978454;28;19913;-88
2021/12/05 13:30:31;;;;;;;;;;;3.50;99.90;;;;;;5010741;28;19921;-89
2021/12/05 13:33:16;;;;;;;;;;;3.40;99.90;;;;;;4986291;28;19913;-89
2021/12/05 13:35:43;;;;;;;;;;;3.30;99.90;;;;;;5007059;28;19910;-89
2021/12/05 13:38:28;;;;;;;;;;;3.30;99.90;;;;;;4977863;28;20233;-88
2021/12/05 13:40:56;;;;;;;;;;;3.30;99.90;;;;;;5005253;28;19913;-89
2021/12/05 13:43:28;;;;;;;;;;;3.20;99.90;;;;;;4993782;28;19920;-88
2021/12/05 13:45:57;;;;;;;;;;;3.30;99.90;;;;;;5009185;28;19909;-88
2021/12/05 13:48:25;;;;;;;;;;;3.30;99.90;;;;;;5021794;28;20000;-88
2021/12/05 13:51:06;;;;;;;;;;;3.40;99.90;;;;;;4989243;28;19909;-88
2021/12/05 13:53:34;;;;;;;;;;;3.40;99.90;;;;;;5010202;28;19967;-87
2021/12/05 13:56:06;;;;;;;;;;;3.30;99.90;;;;;;5008990;28;19910;-90
2021/12/05 13:58:32;;;;;;;;;;;3.20;99.90;;;;;;5010595;28;19929;-90
2021/12/05 14:01:01;;;;;;;;;;;3.10;99.90;;;;;;4991611;28;19910;-88
2021/12/05 14:03:45;;;;;;;;;;;3.00;99.90;;;;;;5008918;28;19909;-87
2021/12/05 14:06:29;;;;;;;;;;;3.00;99.90;;;;;;5024157;28;19925;-89
2021/12/05 14:09:00;;;;;;;;;;;2.90;99.90;;;;;;5009344;28;19913;-87
2021/12/05 14:11:26;;;;;;;;;;;2.90;99.90;;;;;;5010093;28;20003;-88
2021/12/05 14:13:51;;;;;;;;;;;2.90;99.90;;;;;;4995694;28;19947;-88
2021/12/05 14:16:18;;;;;;;;;;;2.90;99.90;;;;;;4990751;28;19921;-89
2021/12/05 14:18:44;;;;;;;;;;;2.90;99.90;;;;;;4991501;28;20011;-88
2021/12/05 14:21:11;;;;;;;;;;;2.90;99.90;;;;;;5009489;28;19948;-89
2021/12/05 14:23:36;;;;;;;;;;;2.80;99.90;;;;;;4977111;28;19959;-89
2021/12/05 14:26:15;;;;;;;;;;;2.80;99.90;;;;;;4988247;28;19960;-88
2021/12/05 14:28:41;;;;;;;;;;;2.90;99.90;;;;;;5009417;28;19920;-89
2021/12/05 14:31:06;;;;;;;;;;;2.90;99.90;;;;;;4994233;28;19909;-89
2021/12/05 14:33:49;;;;;;;;;;;3.00;99.90;;;;;;5010368;28;19975;-88
2021/12/05 14:36:19;;;;;;;;;;;3.00;99.90;;;;;;5003262;28;19909;-87
2021/12/05 14:38:44;;;;;;;;;;;2.90;99.90;;;;;;4989096;28;19940;-87
2021/12/05 14:41:10;;;;;;;;;;;2.80;99.90;;;;;;4995595;28;19909;-90
2021/12/05 14:43:35;;;;;;;;;;;2.70;99.90;;;;;;4989641;28;20017;-89
2021/12/05 14:46:01;;;;;;;;;;;2.70;99.90;;;;;;4989337;28;19956;-89
2021/12/05 14:48:30;;;;;;;;;;;2.60;99.90;;;;;;4972724;28;20013;-89
2021/12/05 14:50:57;;;;;;;;;;;2.60;99.90;;;;;;5006204;28;19918;-89
2021/12/05 14:53:24;;;;;;;;;;;2.50;99.90;;;;;;5009749;28;20008;-88
2021/12/05 14:55:56;;;;;;;;;;;2.50;99.90;;;;;;5009009;28;19905;-89
2021/12/05 14:58:22;;;;;;;;;;;2.60;99.90;;;;;;4990969;28;19921;-89
2021/12/05 15:00:50;;;;;;;;;;;2.60;99.90;;;;;;4979220;28;19966;-89
2021/12/05 15:03:24;;;;;;;;;;;2.70;99.90;;;;;;5012536;28;19910;-89
2021/12/05 15:05:54;;;;;;;;;;;2.70;99.90;;;;;;5005671;23;19929;-82
2021/12/05 15:08:22;;;;;;;;;;;2.60;99.90;;;;;;5022360;28;19917;-82
2021/12/05 15:10:51;;;;;;;;;;;2.60;99.90;;;;;;5009705;28;19944;-82
2021/12/05 15:13:17;;;;;;;;;;;2.50;99.90;;;;;;5006895;28;19910;-81
2021/12/05 15:15:43;;;;;;;;;;;2.40;99.90;;;;;;5009161;28;19936;-79
2021/12/05 15:18:16;;;;;;;;;;;2.40;99.90;;;;;;4984549;28;19917;-83
2021/12/05 15:20:42;;;;;;;;;;;2.40;99.90;;;;;;4991116;28;19936;-80
2021/12/05 15:23:10;;;;;;;;;;;2.50;99.90;;;;;;4987718;28;20495;-80
2021/12/05 15:25:38;;;;;;;;;;;2.50;99.90;;;;;;5005491;28;21346;-81
2021/12/05 15:28:04;;;;;;;;;;;2.50;99.90;;;;;;5006533;28;19914;-80
2021/12/05 15:30:37;;;;;;;;;;;2.50;99.90;;;;;;4994836;28;19928;-80
2021/12/05 15:33:07;;;;;;;;;;;2.50;99.90;;;;;;4990788;28;19917;-80
2021/12/05 15:35:33;;;;;;;;;;;2.50;99.90;;;;;;4982865;28;19966;-81
2021/12/05 15:38:01;;;;;;;;;;;2.50;99.90;;;;;;5007311;28;20519;-80
2021/12/05 15:40:28;;;;;;;;;;;2.40;99.90;;;;;;5013806;28;19921;-81
2021/12/05 15:43:03;;;;;;;;;;;2.30;99.90;;;;;;5013001;28;19914;-80
2021/12/05 15:45:29;;;;;;;;;;;2.30;99.90;;;;;;4996287;28;19949;-80
2021/12/05 15:47:54;;;;;;;;;;;2.20;99.90;;;;;;5007610;28;20044;-82
2021/12/05 15:50:22;;;;;;;;;;;2.20;99.90;;;;;;4995682;28;19917;-81
2021/12/05 15:52:48;;;;;;;;;;;2.10;99.90;;;;;;5013076;28;19909;-81
2021/12/05 15:55:16;;;;;;;;;;;2.10;99.90;;;;;;5013354;28;19924;-80
2021/12/05 15:57:44;;;;;;;;;;;2.10;99.90;;;;;;5000877;28;20597;-80
2021/12/05 16:00:15;;;;;;;;;;;2.10;99.90;;;;;;4995642;28;20485;-79
2021/12/05 16:02:41;;;;;;;;;;;2.10;99.90;;;;;;5009154;28;19944;-80
2021/12/05 16:05:18;;;;;;;;;;;2.00;99.90;;;;;;5011390;28;19909;-78
2021/12/05 16:07:44;;;;;;;;;;;2.00;99.90;;;;;;5013017;28;19935;-79
2021/12/05 16:10:14;;;;;;;;;;;2.00;99.90;;;;;;4992649;28;20682;-80
2021/12/05 16:12:41;;;;;;;;;;;2.00;99.90;;;;;;5014166;28;20276;-80
2021/12/05 16:15:07;;;;;;;;;;;2.00;99.90;;;;;;4998549;28;20020;-82
2021/12/05 16:17:33;;;;;;;;;;;2.00;99.90;;;;;;4991212;28;20427;-80
2021/12/05 16:20:06;;;;;;;;;;;2.10;99.90;;;;;;4993599;28;19967;-81
2021/12/05 16:22:32;;;;;;;;;;;2.00;99.90;;;;;;5011287;28;20313;-83
2021/12/05 16:25:16;;;;;;;;;;;2.00;99.90;;;;;;4998066;28;19913;-82
2021/12/05 16:27:51;;;;;;;;;;;2.00;99.90;;;;;;5013422;28;19909;-81
2021/12/05 16:30:22;;;;;;;;;;;2.10;99.90;;;;;;5006457;28;19914;-82
2021/12/05 16:32:47;;;;;;;;;;;2.10;99.90;;;;;;4998063;28;20747;-82
2021/12/05 16:35:25;;;;;;;;;;;2.10;99.90;;;;;;4995865;28;19913;-82
2021/12/05 16:37:51;;;;;;;;;;;2.00;99.90;;;;;;5005218;28;19913;-81
2021/12/05 16:40:17;;;;;;;;;;;2.00;99.90;;;;;;4992156;28;19941;-82
2021/12/05 16:42:44;;;;;;;;;;;2.00;99.90;;;;;;4981116;28;19913;-82
2021/12/05 16:45:11;;;;;;;;;;;2.00;99.90;;;;;;4997514;28;20012;-83
2021/12/05 16:47:36;;;;;;;;;;;2.00;99.90;;;;;;4996006;28;19909;-82
2021/12/05 16:50:03;;;;;;;;;;;2.00;99.90;;;;;;4995083;28;19913;-83
2021/12/05 16:52:34;;;;;;;;;;;2.00;99.90;;;;;;4981199;28;19921;-82
2021/12/05 16:55:20;;;;;;;;;;;2.00;99.90;;;;;;5019433;28;20677;-81
2021/12/05 16:57:56;;;;;;;;;;;2.00;99.90;;;;;;5009127;28;19917;-82
2021/12/05 17:00:23;;;;;;;;;;;1.90;99.90;;;;;;4997576;28;19920;-83
2021/12/05 17:02:51;;;;;;;;;;;1.90;99.90;;;;;;5016641;28;20482;-82
2021/12/05 17:05:24;;;;;;;;;;;1.80;99.90;;;;;;4993135;28;19914;-83
2021/12/05 17:08:35;;;;;;;;;;;1.80;99.90;;;;;;5012809;28;19914;-82
2021/12/05 17:10:44;;;;;;;;;;;1.80;99.90;;;;;;5005378;28;19909;-82
2021/12/05 17:13:25;;;;;;;;;;;1.80;99.90;;;;;;4985502;28;19910;-83
2021/12/05 17:15:58;;;;;;;;;;;1.80;99.90;;;;;;5017828;28;20154;-82
2021/12/05 17:18:24;;;;;;;;;;;1.70;99.90;;;;;;5005495;28;19920;-82
2021/12/05 17:20:55;;;;;;;;;;;1.70;99.90;;;;;;4980181;28;19909;-82
2021/12/05 17:23:23;;;;;;;;;;;1.70;99.90;;;;;;5012418;28;19914;-82
2021/12/05 17:25:50;;;;;;;;;;;1.70;99.90;;;;;;4992141;28;19920;-82
2021/12/05 17:28:29;;;;;;;;;;;1.70;99.90;;;;;;4976680;28;19933;-81
2021/12/05 17:30:57;;;;;;;;;;;1.70;99.90;;;;;;5010892;28;19913;-81
2021/12/05 17:33:25;;;;;;;;;;;1.70;99.90;;;;;;5000083;28;20306;-81
2021/12/05 17:35:51;;;;;;;;;;;1.70;99.90;;;;;;5005907;28;19910;-82
2021/12/05 17:38:29;;;;;;;;;;;1.70;99.90;;;;;;4983194;28;19921;-82
2021/12/05 17:40:54;;;;;;;;;;;1.70;99.90;;;;;;4990859;28;19916;-82
2021/12/05 17:43:20;;;;;;;;;;;1.70;99.90;;;;;;5014699;28;19913;-81
2021/12/05 17:45:45;;;;;;;;;;;1.60;99.90;;;;;;5002290;28;20375;-83
2021/12/05 17:48:11;;;;;;;;;;;1.70;99.90;;;;;;5009971;28;19913;-83
2021/12/05 17:50:38;;;;;;;;;;;1.70;99.90;;;;;;4994345;28;19956;-81
2021/12/05 17:53:04;;;;;;;;;;;1.70;99.90;;;;;;5009711;28;19955;-82
2021/12/05 17:55:32;;;;;;;;;;;1.60;99.90;;;;;;4990761;28;20001;-82
2021/12/05 17:58:17;;;;;;;;;;;1.70;99.90;;;;;;5006343;28;19914;-82
2021/12/05 18:00:58;;;;;;;;;;;1.70;99.90;;;;;;5008966;28;19983;-82
2021/12/05 18:03:23;;;;;;;;;;;1.70;99.90;;;;;;4992166;28;19971;-82
2021/12/05 18:05:49;;;;;;;;;;;1.70;99.90;;;;;;4986960;28;19921;-81
2021/12/05 18:08:18;;;;;;;;;;;1.70;99.90;;;;;;5005892;28;19953;-81
2021/12/05 18:10:51;;;;;;;;;;;1.70;99.90;;;;;;4992518;28;20405;-82
2021/12/05 18:13:21;;;;;;;;;;;1.60;99.90;;;;;;5011067;28;19988;-81
2021/12/05 18:15:54;;;;;;;;;;;1.70;99.90;;;;;;4995242;28;19920;-83
2021/12/05 18:18:21;;;;;;;;;;;1.60;99.90;;;;;;5009183;28;19945;-82
2021/12/05 18:20:47;;;;;;;;;;;1.60;99.90;;;;;;5010377;28;20008;-82
2021/12/05 18:23:13;;;;;;;;;;;1.60;99.90;;;;;;4993120;28;20069;-81
2021/12/05 18:25:39;;;;;;;;;;;1.70;99.90;;;;;;5009554;28;20467;-82
2021/12/05 18:28:05;;;;;;;;;;;1.70;99.90;;;;;;4991281;28;20419;-82
2021/12/05 18:30:31;;;;;;;;;;;1.70;99.90;;;;;;5003506;28;19910;-83
2021/12/05 18:32:58;;;;;;;;;;;1.60;99.90;;;;;;5000819;28;19914;-82
2021/12/05 18:35:28;;;;;;;;;;;1.60;99.90;;;;;;5001795;28;19999;-82
2021/12/05 18:37:56;;;;;;;;;;;1.60;99.90;;;;;;4990255;28;20009;-81
2021/12/05 18:40:22;;;;;;;;;;;1.60;99.90;;;;;;5002371;28;19924;-82
2021/12/05 18:42:48;;;;;;;;;;;1.60;99.90;;;;;;4995432;28;19913;-82
2021/12/05 18:45:17;;;;;;;;;;;1.60;99.90;;;;;;4995105;28;19909;-82
2021/12/05 18:47:43;;;;;;;;;;;1.60;99.90;;;;;;4994267;28;19967;-82
2021/12/05 18:50:09;;;;;;;;;;;1.70;99.90;;;;;;4995940;28;19975;-82
2021/12/05 18:52:36;;;;;;;;;;;1.70;99.90;;;;;;5008148;28;20252;-82
2021/12/05 18:55:08;;;;;;;;;;;1.60;99.90;;;;;;4994024;28;20728;-82
2021/12/05 18:57:34;;;;;;;;;;;1.60;99.90;;;;;;5005044;28;20425;-81
2021/12/05 19:00:06;;;;;;;;;;;1.60;99.90;;;;;;4987513;28;19905;-82
2021/12/05 19:05:20;;;;;;;;;;;1.50;99.90;;;;;;5002164;28;19917;-82
2021/12/05 19:08:05;;;;;;;;;;;1.50;99.90;;;;;;5008381;28;19917;-83
2021/12/05 19:13:16;;;;;;;;;;;1.50;99.90;;;;;;4979389;28;20367;-82
2021/12/05 19:15:42;;;;;;;;;;;1.50;99.90;;;;;;5018460;28;19914;-83
2021/12/05 19:18:08;;;;;;;;;;;1.50;99.90;;;;;;4997714;28;20607;-82
2021/12/05 19:20:34;;;;;;;;;;;1.50;99.90;;;;;;5026093;28;19909;-82
2021/12/05 19:22:59;;;;;;;;;;;1.40;99.90;;;;;;5028277;28;19991;-81
2021/12/05 19:25:27;;;;;;;;;;;1.40;99.90;;;;;;5000418;28;20437;-81
2021/12/05 19:27:53;;;;;;;;;;;1.40;99.90;;;;;;5016871;28;19923;-81
2021/12/05 19:30:20;;;;;;;;;;;1.40;99.90;;;;;;5011898;28;19909;-81
2021/12/05 19:32:46;;;;;;;;;;;1.40;99.90;;;;;;5016068;28;19940;-81
2021/12/05 19:35:12;;;;;;;;;;;1.40;99.90;;;;;;5026972;28;19909;-82
2021/12/05 19:37:40;;;;;;;;;;;1.50;99.90;;;;;;5008111;28;19959;-82
2021/12/05 19:40:07;;;;;;;;;;;1.40;99.90;;;;;;4993062;28;19909;-82
2021/12/05 19:42:33;;;;;;;;;;;1.40;99.90;;;;;;4985482;28;20398;-82
2021/12/05 19:44:58;;;;;;;;;;;1.40;99.90;;;;;;4979178;28;19910;-83
2021/12/05 19:47:24;;;;;;;;;;;1.40;99.90;;;;;;4999850;28;19913;-82
2021/12/05 19:49:50;;;;;;;;;;;1.40;99.90;;;;;;5022610;28;19913;-81
2021/12/05 19:52:18;;;;;;;;;;;1.30;99.90;;;;;;4984528;28;19984;-81
2021/12/05 19:54:44;;;;;;;;;;;1.30;99.90;;;;;;4994131;28;19920;-80
2021/12/05 19:57:10;;;;;;;;;;;1.30;99.90;;;;;;4995934;28;20363;-81
2021/12/05 19:59:35;;;;;;;;;;;1.40;99.90;;;;;;5015113;28;19916;-82